KPOE/POE METAR and TAF weather

Enter ICAO airport designator
Station Type Date Time Source
KPOE METAR 2020/04/05 06:58 UTC NOAA

KPOE 050658Z AUTO 01004KT 4SM BR BKN006 16/16 A2996 RMK AO2 BKN V OVC SLP146 T01610158


Station Type Date Time Source
KPOE Decoded METAR 2020/04/05 06:58 UTC NOAA

Fort Polk, Polk AAF Ft Polk, LA, United States (KPOE) 31-03N 093-11-38W
Apr 05, 2020 - 02:58 AM EDT / 2020.04.05 0658 UTC
Wind: from the N (010 degrees) at 5 MPH (4 KT):0
Visibility: 4 mile(s):0
Sky conditions: mostly cloudy
Weather: mist
Temperature: 61.0 F (16.1 C)
Dew Point: 60.4 F (15.8 C)
Relative Humidity: 98%
Pressure (altimeter): 29.96 in. Hg (1014 hPa)
ob: KPOE 050658Z AUTO 01004KT 4SM BR BKN006 16/16 A2996 RMK AO2 BKN V OVC SLP146 T01610158
cycle: 7

Station Type Date Time Source
KPOE TAF 2020/04/05 00:14 UTC NOAA

TAF KPOE 041600Z 0500/0606 02006KT 4800 BR -SHRA FEW013 OVC100 QNH2993INS
BECMG 0502/0503 05006KT 9000 -SHRA OVC005 QNH3004INS
BECMG 0505/0506 01006KT 8000 BR BKN015 OVC022 QNH2999INS
BECMG 0520/0521 01006KT 9999 NSW BKN045 OVC060 QNH3000INS TX26/0521Z TN16/0512Z

Example: see airport list